EEL RIVER CAMP CA US current weather conditions

sailwx.info

Wind from 260 at 1 knots gusting 3

Air temperature 7.8° C
Dewpoint 7.5° C

Last reported at 2017-Mar-25 10:28 UTC.
Time now 2017-Mar-25 11:43 UTC

Location: N 40°08' W 123°49'.
View on Google Maps.

See reports from other nearby stations

  
Tides and Currents Weather Stations Pressure Air Temp Water Temp Dewpoint Dewpoint Depression Visibility Wind Speed Wind Dir Waves Ship Positions
date/time (UTC)wind fromknots sea level pressurealtimeterstation pressurevisibilityair tempwater tempwave heightnotes
2017-Mar-25 10:28 260 1 gusting 3 7.8
2017-Mar-25 09:28 272 7.8
2017-Mar-25 08:28 056 7.8
2017-Mar-25 07:28 243 7.8
2017-Mar-25 06:28 149 8.3
2017-Mar-25 05:28 143 8.3
2017-Mar-25 04:28 275 8.3
2017-Mar-25 03:28 305 1 gusting 5 8.3
2017-Mar-25 02:28 012 2 gusting 6 10.0
2017-Mar-25 01:28 221 4 gusting 8 12.2
2017-Mar-25 00:28 260 5 gusting 13 13.3
2017-Mar-24 23:28 211 4 gusting 11 14.4
2017-Mar-24 22:28 252 7 gusting 15 16.1
2017-Mar-24 21:28 192 3 gusting 10 15.0
2017-Mar-24 20:28 153 4 gusting 9 14.4
2017-Mar-24 19:28 151 6 gusting 9 13.3
2017-Mar-24 18:28 193 4 gusting 6 12.8
2017-Mar-24 17:28 072 0 gusting 4 10.6
2017-Mar-24 16:28 197 4 gusting 8 10.6
2017-Mar-24 15:28 165 1 gusting 6 8.9
2017-Mar-24 14:28 016 3 gusting 6 8.9
2017-Mar-24 13:28 206 1 gusting 6 9.4
2017-Mar-24 12:28 232 1 gusting 7 8.9
2017-Mar-24 11:28 192 2 gusting 6 8.9
2017-Mar-24 10:28 226 3 gusting 8 8.3
2017-Mar-24 09:28 254 2 gusting 7 7.8
2017-Mar-24 08:28 249 3 gusting 9 7.8
2017-Mar-24 07:28 308 2 gusting 6 7.8
2017-Mar-24 06:28 020 1 gusting 5 7.8
2017-Mar-24 05:28 300 2 gusting 5 7.8
2017-Mar-24 04:28 286 2 gusting 4 7.2
2017-Mar-24 03:28 314 1 gusting 3 7.2
2017-Mar-24 02:28 233 1 gusting 10 8.3
2017-Mar-24 01:28 117 2 gusting 11 8.9
2017-Mar-24 00:28 207 5 gusting 10 10.6
2017-Mar-23 23:28 222 4 gusting 13 11.1
2017-Mar-23 22:28 228 6 gusting 13 12.2
2017-Mar-23 21:28 220 4 gusting 9 13.3
2017-Mar-23 20:28 224 5 gusting 10 13.9
2017-Mar-23 19:28 213 4 gusting 8 13.3
2017-Mar-23 18:28 012 1 gusting 6 10.6
2017-Mar-23 17:28 286 2 gusting 4 7.8
2017-Mar-23 16:28 325 2 gusting 4 5.6
2017-Mar-23 15:28 290 1 gusting 3 5.0
2017-Mar-23 14:28 243 1 gusting 3 4.4
2017-Mar-23 13:28 256 2 gusting 4 4.4
2017-Mar-23 12:28 264 4 gusting 5 4.4
2017-Mar-23 11:28 269 2 gusting 5 4.4